createdAt,value
2023-02-24T00:01:52.298Z,0.50
2023-02-24T00:04:20.805Z,0.73
2023-02-24T00:06:48.563Z,0.28
2023-02-24T00:09:20.960Z,0.56
2023-02-24T00:11:55.368Z,0.63
2023-02-24T00:14:24.661Z,1.00
2023-02-24T00:16:52.073Z,0.51
2023-02-24T00:19:23.503Z,0.49
2023-02-24T00:21:51.478Z,0.74
2023-02-24T00:24:18.702Z,1.36
2023-02-24T00:26:48.379Z,1.33
2023-02-24T00:29:15.089Z,1.65
2023-02-24T00:31:42.971Z,1.36
2023-02-24T00:34:12.585Z,1.84
2023-02-24T00:36:39.753Z,1.95
2023-02-24T00:39:11.713Z,1.78
2023-02-24T00:41:42.506Z,1.85
2023-02-24T00:44:12.748Z,2.37
2023-02-24T00:46:42.012Z,2.54
2023-02-24T00:49:16.985Z,2.23
2023-02-24T00:51:46.945Z,2.88
2023-02-24T00:54:15.006Z,2.76
2023-02-24T00:56:47.097Z,3.08
2023-02-24T00:59:16.940Z,3.15
2023-02-24T01:01:47.282Z,2.94
2023-02-24T01:04:15.645Z,3.21
2023-02-24T01:06:50.934Z,3.25
2023-02-24T01:09:20.244Z,3.04
2023-02-24T01:12:07.312Z,3.46
2023-02-24T01:14:35.857Z,3.55
2023-02-24T01:17:04.726Z,3.07
2023-02-24T01:19:33.331Z,2.98
2023-02-24T01:22:06.121Z,3.22
2023-02-24T01:24:35.466Z,3.12
2023-02-24T01:27:02.365Z,3.56
2023-02-24T01:29:29.072Z,3.07
2023-02-24T01:31:58.782Z,3.43
2023-02-24T01:34:27.102Z,3.62
2023-02-24T01:36:56.954Z,3.19
2023-02-24T01:39:25.839Z,3.72
2023-02-24T01:41:53.090Z,3.46
2023-02-24T01:44:22.719Z,3.70
2023-02-24T01:46:52.148Z,3.62
2023-02-24T01:49:23.424Z,3.65
2023-02-24T01:51:54.808Z,3.28
2023-02-24T01:54:26.335Z,3.21
2023-02-24T01:56:55.757Z,3.62
2023-02-24T01:59:25.681Z,3.11
2023-02-24T02:01:55.341Z,3.45
2023-02-24T02:04:36.839Z,3.54
2023-02-24T02:07:03.759Z,3.60
2023-02-24T02:09:32.585Z,3.48
2023-02-24T02:11:59.211Z,3.37
2023-02-24T02:14:28.351Z,2.73
2023-02-24T02:17:15.214Z,2.66
2023-02-24T02:20:07.489Z,3.20
2023-02-24T02:22:37.062Z,2.99
2023-02-24T02:25:18.629Z,2.81
2023-02-24T02:28:16.448Z,2.69
2023-02-24T02:30:55.973Z,2.38
2023-02-24T02:33:47.937Z,2.10
2023-02-24T02:36:32.953Z,2.13
2023-02-24T02:39:13.170Z,1.31
2023-02-24T02:41:53.600Z,1.69
2023-02-24T02:44:32.326Z,1.58
2023-02-24T02:47:13.162Z,1.47
2023-02-24T02:49:49.436Z,1.13
2023-02-24T02:52:23.013Z,0.90
2023-02-24T02:55:07.244Z,1.14
2023-02-24T02:57:37.592Z,0.54
2023-02-24T03:00:23.286Z,0.59
2023-02-24T03:02:55.289Z,0.15
2023-02-24T03:05:29.986Z,0.67
2023-02-24T03:08:00.721Z,0.52
2023-02-24T03:10:29.796Z,0.62
2023-02-24T03:12:59.592Z,0.37
2023-02-24T03:15:31.026Z,0.37
2023-02-24T03:18:10.382Z,0.33
2023-02-24T03:20:47.619Z,0.35
2023-02-24T03:23:21.910Z,0.33
2023-02-24T03:25:54.799Z,0.31
2023-02-24T03:28:37.368Z,-0.20
2023-02-24T03:31:18.225Z,0.13
2023-02-24T03:33:57.116Z,-0.04
2023-02-24T03:36:24.026Z,0.12
2023-02-24T03:38:51.166Z,-0.06
2023-02-24T03:41:18.851Z,0.02
2023-02-24T03:43:50.118Z,0.04
2023-02-24T03:46:17.266Z,0.02
2023-02-24T03:48:55.691Z,-0.50
2023-02-24T03:51:23.433Z,-0.04
2023-02-24T03:54:11.034Z,0.02
2023-02-24T03:56:56.771Z,-0.30
2023-02-24T03:59:48.221Z,-0.06
2023-02-24T04:02:32.839Z,-0.04
2023-02-24T04:05:09.576Z,-0.05
2023-02-24T04:08:01.262Z,-0.24
2023-02-24T04:10:40.561Z,-0.59
2023-02-24T04:13:35.483Z,-0.26
2023-02-24T04:16:28.843Z,-0.60
2023-02-24T04:19:04.725Z,-0.21
2023-02-24T04:21:37.569Z,-0.20
2023-02-24T04:24:11.399Z,-0.18
2023-02-24T04:26:42.344Z,-0.19
2023-02-24T04:29:13.918Z,-0.63
2023-02-24T04:31:41.023Z,-0.09
2023-02-24T04:34:09.389Z,-0.11
2023-02-24T04:36:38.652Z,-0.07
2023-02-24T04:39:07.103Z,-0.03
2023-02-24T04:41:35.732Z,0.11
2023-02-24T04:44:02.375Z,-0.35
2023-02-24T04:46:32.255Z,-0.16
2023-02-24T04:48:59.727Z,0.23
2023-02-24T04:51:26.290Z,-0.02
2023-02-24T04:53:55.304Z,0.42
2023-02-24T04:56:22.381Z,0.64
2023-02-24T04:58:48.981Z,0.31
2023-02-24T05:01:15.562Z,0.41
2023-02-24T05:03:42.419Z,1.16
2023-02-24T05:06:16.036Z,0.76
2023-02-24T05:08:42.981Z,1.27
2023-02-24T05:11:15.954Z,1.09
2023-02-24T05:13:45.715Z,1.24
2023-02-24T05:16:15.461Z,1.29
2023-02-24T05:18:42.615Z,0.93
2023-02-24T05:21:33.281Z,1.37
2023-02-24T05:24:06.256Z,1.13
2023-02-24T05:26:35.825Z,1.02
2023-02-24T05:29:04.998Z,1.25
2023-02-24T05:31:31.732Z,1.19
2023-02-24T05:34:03.257Z,0.69
2023-02-24T05:36:40.222Z,1.44
2023-02-24T05:39:09.239Z,1.01
2023-02-24T05:41:38.802Z,1.54
2023-02-24T05:44:11.054Z,1.01
2023-02-24T05:46:41.309Z,1.73
2023-02-24T05:49:14.200Z,1.63
2023-02-24T05:51:44.319Z,1.42
2023-02-24T05:54:13.684Z,1.68
2023-02-24T05:56:44.394Z,1.93
2023-02-24T05:59:12.544Z,1.63
2023-02-24T06:01:41.610Z,1.77
2023-02-24T06:04:09.366Z,1.94
2023-02-24T06:06:42.444Z,1.55
2023-02-24T06:09:12.685Z,1.54
2023-02-24T06:11:45.103Z,1.76
2023-02-24T06:14:13.012Z,1.70
2023-02-24T06:16:41.407Z,2.18
2023-02-24T06:19:10.399Z,2.23
2023-02-24T06:21:41.230Z,2.16
2023-02-24T06:24:18.376Z,1.81
2023-02-24T06:26:45.883Z,2.12
2023-02-24T06:29:17.552Z,1.68
2023-02-24T06:31:44.947Z,2.13
2023-02-24T06:34:13.902Z,2.18
2023-02-24T06:36:40.648Z,1.87
2023-02-24T06:39:13.490Z,2.46
2023-02-24T06:41:40.468Z,1.83
2023-02-24T06:44:07.240Z,2.15
2023-02-24T06:46:33.828Z,2.33
2023-02-24T06:49:00.400Z,2.33
2023-02-24T06:51:30.191Z,2.44
2023-02-24T06:53:59.316Z,2.22
2023-02-24T06:56:27.213Z,2.19
2023-02-24T06:58:55.822Z,2.77
2023-02-24T07:01:28.710Z,2.89
2023-02-24T07:04:12.862Z,2.89
2023-02-24T07:06:41.932Z,2.52
2023-02-24T07:09:11.520Z,2.57
2023-02-24T07:11:41.551Z,2.73
2023-02-24T07:14:09.671Z,2.90
2023-02-24T07:16:36.925Z,2.75
2023-02-24T07:19:11.191Z,2.87
2023-02-24T07:21:43.178Z,3.35
2023-02-24T07:24:13.363Z,3.48
2023-02-24T07:26:41.719Z,3.17
2023-02-24T07:29:11.411Z,3.46
2023-02-24T07:31:39.689Z,3.35
2023-02-24T07:34:06.361Z,3.30
2023-02-24T07:36:38.916Z,3.50
2023-02-24T07:39:09.133Z,3.89
2023-02-24T07:41:36.994Z,4.01
2023-02-24T07:44:03.610Z,3.40
2023-02-24T07:46:30.427Z,4.11
2023-02-24T07:48:59.757Z,3.69
2023-02-24T07:51:27.761Z,4.32
2023-02-24T07:53:59.853Z,4.20
2023-02-24T07:56:28.470Z,4.37
2023-02-24T07:59:02.093Z,4.01
2023-02-24T08:01:30.926Z,4.54
2023-02-24T08:04:01.467Z,4.34
2023-02-24T08:06:38.041Z,4.66
2023-02-24T08:09:39.558Z,4.18
2023-02-24T08:12:08.033Z,4.68
2023-02-24T08:14:35.139Z,4.42
2023-02-24T08:17:05.427Z,4.74
2023-02-24T08:19:39.330Z,5.04
2023-02-24T08:22:19.599Z,5.19
2023-02-24T08:24:52.785Z,5.35
2023-02-24T08:27:25.156Z,5.48
2023-02-24T08:30:04.458Z,5.31
2023-02-24T08:32:43.705Z,5.63
2023-02-24T08:35:19.728Z,5.63
2023-02-24T08:37:52.066Z,5.70
2023-02-24T08:40:32.064Z,5.59
2023-02-24T08:43:16.277Z,5.47
2023-02-24T08:45:52.200Z,5.36
2023-02-24T08:48:37.649Z,4.91
2023-02-24T08:51:22.770Z,4.78
2023-02-24T08:53:54.788Z,5.26
2023-02-24T08:56:34.641Z,5.00
2023-02-24T08:59:07.675Z,5.11
2023-02-24T09:01:39.894Z,5.07
2023-02-24T09:04:12.402Z,5.09
2023-02-24T09:06:48.452Z,5.22
2023-02-24T09:09:19.324Z,5.36
2023-02-24T09:11:56.187Z,5.24
2023-02-24T09:14:36.419Z,5.24
2023-02-24T09:17:06.568Z,5.18
2023-02-24T09:19:48.161Z,5.17
2023-02-24T09:22:31.294Z,4.78
2023-02-24T09:25:17.933Z,5.26
2023-02-24T09:28:07.910Z,4.82
2023-02-24T09:30:37.760Z,5.28
2023-02-24T09:33:19.451Z,5.36
2023-02-24T09:36:09.768Z,5.34
2023-02-24T09:39:01.669Z,5.36
2023-02-24T09:41:53.280Z,5.34
2023-02-24T09:44:33.205Z,4.81
2023-02-24T09:47:08.931Z,4.84
2023-02-24T09:49:49.669Z,5.19
2023-02-24T09:52:18.851Z,4.80
2023-02-24T09:55:08.925Z,5.20
2023-02-24T09:58:06.081Z,5.23
2023-02-24T10:00:33.775Z,5.23
2023-02-24T10:03:24.864Z,4.76
2023-02-24T10:06:12.249Z,4.95
2023-02-24T10:08:49.658Z,5.22
2023-02-24T10:11:16.761Z,4.66
2023-02-24T10:13:53.106Z,4.86
2023-02-24T10:16:23.843Z,4.99
2023-02-24T10:19:15.182Z,5.23
2023-02-24T10:22:27.288Z,5.34
2023-02-24T10:25:21.095Z,5.59
2023-02-24T10:27:58.214Z,5.13
2023-02-24T10:30:47.786Z,5.20
2023-02-24T10:33:28.012Z,5.69
2023-02-24T10:36:09.969Z,5.91
2023-02-24T10:38:40.738Z,5.88
2023-02-24T10:41:10.228Z,5.99
2023-02-24T10:43:45.497Z,5.99
2023-02-24T10:46:41.723Z,5.79
2023-02-24T10:49:11.743Z,6.01
2023-02-24T10:51:45.188Z,5.99
2023-02-24T10:54:34.429Z,6.10
2023-02-24T10:57:36.340Z,5.41
2023-02-24T11:00:30.892Z,6.21
2023-02-24T11:03:10.557Z,6.17
2023-02-24T11:06:00.937Z,5.74
2023-02-24T11:08:36.970Z,6.19
2023-02-24T11:11:29.961Z,5.68
2023-02-24T11:14:22.004Z,6.04
2023-02-24T11:17:10.431Z,6.03
2023-02-24T11:19:55.978Z,5.20
2023-02-24T11:22:36.232Z,5.97
2023-02-24T11:25:14.182Z,5.41
2023-02-24T11:27:43.319Z,5.87
2023-02-24T11:30:45.238Z,5.56
2023-02-24T11:33:30.609Z,5.88
2023-02-24T11:36:14.746Z,5.78
2023-02-24T11:39:21.546Z,5.96
2023-02-24T11:41:55.652Z,5.88
2023-02-24T11:44:40.737Z,5.97
2023-02-24T11:47:13.996Z,5.98
2023-02-24T11:49:46.009Z,5.99
2023-02-24T11:52:41.110Z,6.07
2023-02-24T11:55:22.408Z,5.58
2023-02-24T11:57:54.453Z,5.62
2023-02-24T12:00:24.701Z,6.10
2023-02-24T12:03:04.353Z,6.11
2023-02-24T12:05:36.872Z,5.68
2023-02-24T12:08:09.644Z,6.09
2023-02-24T12:10:38.777Z,6.13
2023-02-24T12:13:11.268Z,6.07
2023-02-24T12:15:48.583Z,5.63
2023-02-24T12:18:24.296Z,6.05
2023-02-24T12:21:14.714Z,5.51
2023-02-24T12:23:44.654Z,6.06
2023-02-24T12:26:29.407Z,5.73
2023-02-24T12:29:34.349Z,6.15
2023-02-24T12:32:17.518Z,6.18
2023-02-24T12:34:53.066Z,6.08
2023-02-24T12:37:42.585Z,5.77
2023-02-24T12:40:23.395Z,6.09
2023-02-24T12:42:52.840Z,6.14
2023-02-24T12:45:52.518Z,5.66
2023-02-24T12:48:40.028Z,5.71
2023-02-24T12:51:42.672Z,6.19
2023-02-24T12:54:19.890Z,6.20
2023-02-24T12:56:58.721Z,6.08
2023-02-24T12:59:33.050Z,6.13
2023-02-24T13:02:01.321Z,6.16
2023-02-24T13:04:46.550Z,6.15
2023-02-24T13:07:39.058Z,6.27
2023-02-24T13:10:23.642Z,6.29
2023-02-24T13:13:05.348Z,6.31
2023-02-24T13:15:34.285Z,6.49
2023-02-24T13:18:01.134Z,6.46
2023-02-24T13:20:31.300Z,6.71
2023-02-24T13:22:59.210Z,6.81
2023-02-24T13:25:52.875Z,6.96
2023-02-24T13:28:33.269Z,7.26
2023-02-24T13:31:07.489Z,7.93
2023-02-24T13:33:40.256Z,8.56
2023-02-24T13:36:22.627Z,8.74
2023-02-24T13:39:05.830Z,9.72
2023-02-24T13:41:32.296Z,9.63
2023-02-24T13:44:03.595Z,9.21
2023-02-24T13:46:49.381Z,8.81
2023-02-24T13:49:37.757Z,8.59
2023-02-24T13:52:41.130Z,8.58
2023-02-24T13:55:22.425Z,8.46
2023-02-24T13:58:02.061Z,8.38
2023-02-24T14:00:55.134Z,8.40
2023-02-24T14:03:24.473Z,8.35
2023-02-24T14:05:51.546Z,8.30
2023-02-24T14:08:26.002Z,9.62
2023-02-24T14:10:55.984Z,10.64
2023-02-24T14:13:29.739Z,11.15
2023-02-24T14:15:58.231Z,10.28
2023-02-24T14:18:27.134Z,9.66
2023-02-24T14:20:55.628Z,9.53
2023-02-24T14:23:32.084Z,10.36
2023-02-24T14:26:01.778Z,10.88
2023-02-24T14:28:34.258Z,11.11
2023-02-24T14:31:09.313Z,10.92
2023-02-24T14:33:39.209Z,10.88
2023-02-24T14:36:14.070Z,11.94
2023-02-24T14:38:43.763Z,13.42
2023-02-24T14:41:25.260Z,12.19
2023-02-24T14:43:52.836Z,11.10
2023-02-24T14:46:20.190Z,9.82
2023-02-24T14:48:53.411Z,9.41
2023-02-24T14:51:29.603Z,9.02
2023-02-24T14:54:01.676Z,8.95
2023-02-24T14:56:32.716Z,8.62
2023-02-24T14:59:19.094Z,8.18
2023-02-24T15:01:49.308Z,8.17
2023-02-24T15:04:30.766Z,8.59
2023-02-24T15:06:57.856Z,8.44
2023-02-24T15:09:31.596Z,8.45
2023-02-24T15:11:58.247Z,8.35
2023-02-24T15:14:30.621Z,8.12
2023-02-24T15:17:08.501Z,7.88
2023-02-24T15:19:45.756Z,7.73
2023-02-24T15:22:21.580Z,7.97
2023-02-24T15:24:49.165Z,8.53
2023-02-24T15:27:15.600Z,9.79
2023-02-24T15:29:43.519Z,10.18
2023-02-24T15:32:17.789Z,11.70
2023-02-24T15:34:47.847Z,12.02
2023-02-24T15:37:20.356Z,11.89
2023-02-24T15:39:48.715Z,11.82
2023-02-24T15:42:28.271Z,12.59
2023-02-24T15:45:07.011Z,12.20
2023-02-24T15:47:45.278Z,11.25
2023-02-24T15:50:13.150Z,10.49
2023-02-24T15:52:41.039Z,9.61
2023-02-24T15:55:10.347Z,9.19
2023-02-24T15:57:37.112Z,9.08
2023-02-24T16:00:13.152Z,9.15
2023-02-24T16:02:41.149Z,8.39
2023-02-24T16:05:12.743Z,8.39
2023-02-24T16:07:39.814Z,8.54
2023-02-24T16:10:06.739Z,8.54
2023-02-24T16:12:36.824Z,8.33
2023-02-24T16:15:06.981Z,7.36
2023-02-24T16:17:35.142Z,8.09
2023-02-24T16:20:02.437Z,7.82
2023-02-24T16:22:29.290Z,7.62
2023-02-24T16:24:56.021Z,7.62
2023-02-24T16:27:23.835Z,7.49
2023-02-24T16:29:51.095Z,7.36
2023-02-24T16:32:17.725Z,7.28
2023-02-24T16:34:44.385Z,7.18
2023-02-24T16:37:17.954Z,6.74
2023-02-24T16:39:45.675Z,7.13
2023-02-24T16:42:12.671Z,6.70
2023-02-24T16:44:39.377Z,6.83
2023-02-24T16:47:07.286Z,7.33
2023-02-24T16:49:34.274Z,7.25
2023-02-24T16:52:00.794Z,7.27
2023-02-24T16:54:29.235Z,7.11
2023-02-24T16:56:56.830Z,7.34
2023-02-24T16:59:24.062Z,6.82
2023-02-24T17:01:50.654Z,7.29
2023-02-24T17:04:17.264Z,6.68
2023-02-24T17:06:43.843Z,7.14
2023-02-24T17:09:10.408Z,6.92
2023-02-24T17:11:36.976Z,6.79
2023-02-24T17:14:03.514Z,6.26
2023-02-24T17:16:30.173Z,6.10
2023-02-24T17:18:56.703Z,6.41
2023-02-24T17:21:24.296Z,6.62
2023-02-24T17:23:51.412Z,6.65
2023-02-24T17:26:18.046Z,6.05
2023-02-24T17:28:44.697Z,6.25
2023-02-24T17:31:11.451Z,6.08
2023-02-24T17:33:38.100Z,5.42
2023-02-24T17:36:04.781Z,5.27
2023-02-24T17:38:31.341Z,5.72
2023-02-24T17:40:57.977Z,5.63
2023-02-24T17:43:24.579Z,5.52
2023-02-24T17:45:52.845Z,5.43
2023-02-24T17:48:19.777Z,5.48
2023-02-24T17:50:47.237Z,5.50
2023-02-24T17:53:14.734Z,5.53
2023-02-24T17:55:55.952Z,5.49
2023-02-24T17:58:28.198Z,5.63
2023-02-24T18:00:54.847Z,5.70
2023-02-24T18:03:21.536Z,5.54
2023-02-24T18:05:48.234Z,5.78
2023-02-24T18:08:14.763Z,5.43
2023-02-24T18:10:41.378Z,5.92
2023-02-24T18:13:08.007Z,5.94
2023-02-24T18:15:34.633Z,5.95
2023-02-24T18:18:01.234Z,5.98
2023-02-24T18:20:27.909Z,5.86
2023-02-24T18:22:54.521Z,5.90
2023-02-24T18:25:21.112Z,5.77
2023-02-24T18:27:47.684Z,5.54
2023-02-24T18:30:17.660Z,5.10
2023-02-24T18:32:44.968Z,5.58
2023-02-24T18:35:13.092Z,5.23
2023-02-24T18:37:39.772Z,5.17
2023-02-24T18:40:06.923Z,4.75
2023-02-24T18:42:33.576Z,4.75
2023-02-24T18:45:00.109Z,5.05
2023-02-24T18:47:26.667Z,4.48
2023-02-24T18:49:53.269Z,4.99
2023-02-24T18:52:19.758Z,4.49
2023-02-24T18:54:47.734Z,5.12
2023-02-24T18:57:14.514Z,5.37
2023-02-24T18:59:41.037Z,5.24
2023-02-24T19:02:09.954Z,5.33
2023-02-24T19:04:36.547Z,5.21
2023-02-24T19:07:03.094Z,4.77
2023-02-24T19:09:29.715Z,5.23
2023-02-24T19:11:56.245Z,5.15
2023-02-24T19:14:22.781Z,4.64
2023-02-24T19:16:49.399Z,4.97
2023-02-24T19:19:16.808Z,5.13
2023-02-24T19:21:46.344Z,4.89
2023-02-24T19:24:13.789Z,4.97
2023-02-24T19:26:42.570Z,4.64
2023-02-24T19:29:09.981Z,4.72
2023-02-24T19:31:37.661Z,5.03
2023-02-24T19:34:13.781Z,4.94
2023-02-24T19:36:41.190Z,4.64
2023-02-24T19:39:13.533Z,4.56
2023-02-24T19:41:40.121Z,4.40
2023-02-24T19:44:07.192Z,3.98
2023-02-24T19:46:34.299Z,4.12
2023-02-24T19:49:01.253Z,4.24
2023-02-24T19:51:31.086Z,3.90
2023-02-24T19:54:00.087Z,3.78
2023-02-24T19:56:29.611Z,3.53
2023-02-24T19:58:57.955Z,3.82
2023-02-24T20:01:26.219Z,3.68
2023-02-24T20:03:57.999Z,3.77
2023-02-24T20:06:28.820Z,3.22
2023-02-24T20:08:56.688Z,3.08
2023-02-24T20:11:24.505Z,3.55
2023-02-24T20:13:52.791Z,3.32
2023-02-24T20:16:23.588Z,3.59
2023-02-24T20:18:50.903Z,3.48
2023-02-24T20:21:17.603Z,3.65
2023-02-24T20:23:44.397Z,3.53
2023-02-24T20:26:14.127Z,3.16
2023-02-24T20:28:41.024Z,4.05
2023-02-24T20:31:13.530Z,4.02
2023-02-24T20:33:40.982Z,4.11
2023-02-24T20:36:12.866Z,3.95
2023-02-24T20:38:39.728Z,3.77
2023-02-24T20:41:06.819Z,3.03
2023-02-24T20:43:33.990Z,3.40
2023-02-24T20:46:09.695Z,3.71
2023-02-24T20:48:36.381Z,3.39
2023-02-24T20:51:06.606Z,3.19
2023-02-24T20:53:34.578Z,3.68
2023-02-24T20:56:06.356Z,3.66
2023-02-24T20:58:33.991Z,3.46
2023-02-24T21:01:00.617Z,3.47
2023-02-24T21:03:27.285Z,3.55
2023-02-24T21:06:04.534Z,3.00
2023-02-24T21:08:35.499Z,3.02
2023-02-24T21:11:02.110Z,3.49
2023-02-24T21:13:28.670Z,3.06
2023-02-24T21:15:55.765Z,3.38
2023-02-24T21:18:22.879Z,3.50
2023-02-24T21:20:53.879Z,2.94
2023-02-24T21:23:21.806Z,3.15
2023-02-24T21:25:52.850Z,2.97
2023-02-24T21:28:22.877Z,3.55
2023-02-24T21:30:50.249Z,3.69
2023-02-24T21:33:18.420Z,3.81
2023-02-24T21:35:55.987Z,3.70
2023-02-24T21:38:22.658Z,4.02
2023-02-24T21:40:50.024Z,3.79
2023-02-24T21:43:17.772Z,4.15
2023-02-24T21:45:45.449Z,4.16
2023-02-24T21:48:12.053Z,3.70
2023-02-24T21:50:38.573Z,3.79
2023-02-24T21:53:06.100Z,3.59
2023-02-24T21:55:33.975Z,3.39
2023-02-24T21:58:00.507Z,3.41
2023-02-24T22:00:28.509Z,2.78
2023-02-24T22:02:55.830Z,2.52
2023-02-24T22:05:24.528Z,3.01
2023-02-24T22:07:51.773Z,3.11
2023-02-24T22:10:20.946Z,3.23
2023-02-24T22:12:50.794Z,3.22
2023-02-24T22:15:17.830Z,3.50
2023-02-24T22:17:44.377Z,2.98
2023-02-24T22:20:13.368Z,3.01
2023-02-24T22:22:41.890Z,3.65
2023-02-24T22:25:12.501Z,3.63
2023-02-24T22:27:39.493Z,3.11
2023-02-24T22:30:07.751Z,3.71
2023-02-24T22:32:35.936Z,3.64
2023-02-24T22:35:03.027Z,3.81
2023-02-24T22:37:29.834Z,3.66
2023-02-24T22:39:56.521Z,3.50
2023-02-24T22:42:23.206Z,3.67
2023-02-24T22:44:49.752Z,3.06
2023-02-24T22:47:16.984Z,3.46
2023-02-24T22:49:43.829Z,3.04
2023-02-24T22:52:11.527Z,3.17
2023-02-24T22:54:38.064Z,2.84
2023-02-24T22:57:04.556Z,3.41
2023-02-24T22:59:31.145Z,3.19
2023-02-24T23:01:59.406Z,3.30
2023-02-24T23:04:29.115Z,3.48
2023-02-24T23:06:57.148Z,2.70
2023-02-24T23:09:24.334Z,3.42
2023-02-24T23:11:51.007Z,3.29
2023-02-24T23:14:17.761Z,3.26
2023-02-24T23:16:47.208Z,3.33
2023-02-24T23:19:17.807Z,2.91
2023-02-24T23:21:47.259Z,3.34
2023-02-24T23:24:15.129Z,3.25
2023-02-24T23:26:45.190Z,3.07
2023-02-24T23:29:15.308Z,3.08
2023-02-24T23:31:42.584Z,2.70
2023-02-24T23:34:10.159Z,3.04
2023-02-24T23:36:39.445Z,2.93
2023-02-24T23:39:07.646Z,2.51
2023-02-24T23:41:35.539Z,2.58
2023-02-24T23:44:02.307Z,2.89
2023-02-24T23:46:29.634Z,2.90
2023-02-24T23:48:57.370Z,2.86
2023-02-24T23:51:24.838Z,2.79
2023-02-24T23:53:51.658Z,2.45
2023-02-24T23:56:22.239Z,2.93
2023-02-24T23:58:57.906Z,2.69
